sensor_id;sensor_type;location;lat;lon;timestamp;temperature;humidity
16064;DHT22;8136;53.172;8.256;2024-03-22T00:00:44;9.90;99.90
16064;DHT22;8136;53.172;8.256;2024-03-22T00:03:11;9.90;99.90
16064;DHT22;8136;53.172;8.256;2024-03-22T00:05:37;9.90;99.90
16064;DHT22;8136;53.172;8.256;2024-03-22T00:08:05;10.00;99.90
16064;DHT22;8136;53.172;8.256;2024-03-22T00:10:30;10.00;99.90
16064;DHT22;8136;53.172;8.256;2024-03-22T00:12:57;10.00;99.90
16064;DHT22;8136;53.172;8.256;2024-03-22T00:15:23;10.00;99.90
16064;DHT22;8136;53.172;8.256;2024-03-22T00:17:51;10.00;99.90
16064;DHT22;8136;53.172;8.256;2024-03-22T00:20:17;10.00;99.90
16064;DHT22;8136;53.172;8.256;2024-03-22T00:22:44;10.00;99.90
16064;DHT22;8136;53.172;8.256;2024-03-22T00:25:10;10.00;99.90
16064;DHT22;8136;53.172;8.256;2024-03-22T00:27:37;10.00;99.90
16064;DHT22;8136;53.172;8.256;2024-03-22T00:30:04;10.00;99.90
16064;DHT22;8136;53.172;8.256;2024-03-22T00:32:31;10.10;99.90
16064;DHT22;8136;53.172;8.256;2024-03-22T00:34:58;10.10;99.90
16064;DHT22;8136;53.172;8.256;2024-03-22T00:37:25;10.10;99.90
16064;DHT22;8136;53.172;8.256;2024-03-22T00:39:50;10.10;99.90
16064;DHT22;8136;53.172;8.256;2024-03-22T00:42:17;10.10;99.90
16064;DHT22;8136;53.172;8.256;2024-03-22T00:44:43;10.10;99.90
16064;DHT22;8136;53.172;8.256;2024-03-22T00:47:10;10.10;99.90
16064;DHT22;8136;53.172;8.256;2024-03-22T00:49:36;10.10;99.90
16064;DHT22;8136;53.172;8.256;2024-03-22T00:52:04;10.10;99.90
16064;DHT22;8136;53.172;8.256;2024-03-22T00:54:30;10.10;99.90
16064;DHT22;8136;53.172;8.256;2024-03-22T00:56:57;10.10;99.90
16064;DHT22;8136;53.172;8.256;2024-03-22T00:59:23;10.20;99.90
16064;DHT22;8136;53.172;8.256;2024-03-22T01:01:52;10.20;99.90
16064;DHT22;8136;53.172;8.256;2024-03-22T01:04:19;10.20;99.90
16064;DHT22;8136;53.172;8.256;2024-03-22T01:06:46;10.20;99.90
16064;DHT22;8136;53.172;8.256;2024-03-22T01:09:13;10.20;99.90
16064;DHT22;8136;53.172;8.256;2024-03-22T01:11:40;10.20;99.90
16064;DHT22;8136;53.172;8.256;2024-03-22T01:14:06;10.20;99.90
16064;DHT22;8136;53.172;8.256;2024-03-22T01:16:33;10.20;99.90
16064;DHT22;8136;53.172;8.256;2024-03-22T01:18:58;10.20;99.90
16064;DHT22;8136;53.172;8.256;2024-03-22T01:21:25;10.20;99.90
16064;DHT22;8136;53.172;8.256;2024-03-22T01:23:52;10.20;99.90
16064;DHT22;8136;53.172;8.256;2024-03-22T01:26:20;10.20;99.90
16064;DHT22;8136;53.172;8.256;2024-03-22T01:28:46;10.20;99.90
16064;DHT22;8136;53.172;8.256;2024-03-22T01:31:13;10.20;99.90
16064;DHT22;8136;53.172;8.256;2024-03-22T01:33:39;10.20;99.90
16064;DHT22;8136;53.172;8.256;2024-03-22T01:36:06;10.20;99.90
16064;DHT22;8136;53.172;8.256;2024-03-22T01:38:32;10.20;99.90
16064;DHT22;8136;53.172;8.256;2024-03-22T01:40:59;10.20;99.90
16064;DHT22;8136;53.172;8.256;2024-03-22T01:43:26;10.20;99.90
16064;DHT22;8136;53.172;8.256;2024-03-22T01:45:53;10.20;99.90
16064;DHT22;8136;53.172;8.256;2024-03-22T01:48:19;10.30;99.90
16064;DHT22;8136;53.172;8.256;2024-03-22T01:50:47;10.30;99.90
16064;DHT22;8136;53.172;8.256;2024-03-22T01:53:12;10.30;99.90
16064;DHT22;8136;53.172;8.256;2024-03-22T01:55:39;10.30;99.90
16064;DHT22;8136;53.172;8.256;2024-03-22T01:58:05;10.30;99.90
16064;DHT22;8136;53.172;8.256;2024-03-22T02:00:34;10.30;99.90
16064;DHT22;8136;53.172;8.256;2024-03-22T02:03:00;10.30;99.90
16064;DHT22;8136;53.172;8.256;2024-03-22T02:05:27;10.40;99.90
16064;DHT22;8136;53.172;8.256;2024-03-22T02:07:53;10.40;99.90
16064;DHT22;8136;53.172;8.256;2024-03-22T02:10:20;10.40;99.90
16064;DHT22;8136;53.172;8.256;2024-03-22T02:12:46;10.40;99.90
16064;DHT22;8136;53.172;8.256;2024-03-22T02:15:13;10.40;99.90
16064;DHT22;8136;53.172;8.256;2024-03-22T02:17:40;10.40;99.90
16064;DHT22;8136;53.172;8.256;2024-03-22T02:20:08;10.40;99.90
16064;DHT22;8136;53.172;8.256;2024-03-22T02:22:34;10.40;99.90
16064;DHT22;8136;53.172;8.256;2024-03-22T02:25:03;10.40;99.90
16064;DHT22;8136;53.172;8.256;2024-03-22T02:27:28;10.40;99.90
16064;DHT22;8136;53.172;8.256;2024-03-22T02:29:55;10.40;99.90
16064;DHT22;8136;53.172;8.256;2024-03-22T02:32:21;10.40;99.90
16064;DHT22;8136;53.172;8.256;2024-03-22T02:34:48;10.50;99.90
16064;DHT22;8136;53.172;8.256;2024-03-22T02:37:14;10.50;99.90
16064;DHT22;8136;53.172;8.256;2024-03-22T02:39:41;10.50;99.90
16064;DHT22;8136;53.172;8.256;2024-03-22T02:42:08;10.50;99.90
16064;DHT22;8136;53.172;8.256;2024-03-22T02:44:35;10.50;99.90
16064;DHT22;8136;53.172;8.256;2024-03-22T02:49:35;10.50;99.90
16064;DHT22;8136;53.172;8.256;2024-03-22T02:52:02;10.50;99.90
16064;DHT22;8136;53.172;8.256;2024-03-22T02:54:28;10.60;99.90
16064;DHT22;8136;53.172;8.256;2024-03-22T02:56:55;10.50;99.90
16064;DHT22;8136;53.172;8.256;2024-03-22T02:59:25;10.50;99.90
16064;DHT22;8136;53.172;8.256;2024-03-22T03:01:52;10.60;99.90
16064;DHT22;8136;53.172;8.256;2024-03-22T03:04:18;10.60;99.90
16064;DHT22;8136;53.172;8.256;2024-03-22T03:06:45;10.60;99.90
16064;DHT22;8136;53.172;8.256;2024-03-22T03:09:11;10.60;99.90
16064;DHT22;8136;53.172;8.256;2024-03-22T03:11:38;10.60;99.90
16064;DHT22;8136;53.172;8.256;2024-03-22T03:14:04;10.60;99.90
16064;DHT22;8136;53.172;8.256;2024-03-22T03:16:33;10.70;99.90
16064;DHT22;8136;53.172;8.256;2024-03-22T03:18:58;10.70;99.90
16064;DHT22;8136;53.172;8.256;2024-03-22T03:21:25;10.70;99.90
16064;DHT22;8136;53.172;8.256;2024-03-22T03:23:51;10.70;99.90
16064;DHT22;8136;53.172;8.256;2024-03-22T03:26:18;10.70;99.90
16064;DHT22;8136;53.172;8.256;2024-03-22T03:28:44;10.70;99.90
16064;DHT22;8136;53.172;8.256;2024-03-22T03:31:11;10.80;99.90
16064;DHT22;8136;53.172;8.256;2024-03-22T03:33:38;10.70;99.90
16064;DHT22;8136;53.172;8.256;2024-03-22T03:36:05;10.70;99.90
16064;DHT22;8136;53.172;8.256;2024-03-22T03:38:31;10.70;99.90
16064;DHT22;8136;53.172;8.256;2024-03-22T03:40:58;10.70;99.90
16064;DHT22;8136;53.172;8.256;2024-03-22T03:43:24;10.80;99.90
16064;DHT22;8136;53.172;8.256;2024-03-22T03:45:50;10.80;99.90
16064;DHT22;8136;53.172;8.256;2024-03-22T03:48:16;10.80;99.90
16064;DHT22;8136;53.172;8.256;2024-03-22T03:50:52;10.80;99.90
16064;DHT22;8136;53.172;8.256;2024-03-22T03:53:18;10.80;99.90
16064;DHT22;8136;53.172;8.256;2024-03-22T03:55:45;10.80;99.90
16064;DHT22;8136;53.172;8.256;2024-03-22T03:58:11;10.80;99.90
16064;DHT22;8136;53.172;8.256;2024-03-22T04:00:38;10.80;99.90
16064;DHT22;8136;53.172;8.256;2024-03-22T04:03:04;10.80;99.90
16064;DHT22;8136;53.172;8.256;2024-03-22T04:05:31;10.80;99.90
16064;DHT22;8136;53.172;8.256;2024-03-22T04:07:58;10.80;99.90
16064;DHT22;8136;53.172;8.256;2024-03-22T04:10:25;10.80;99.90
16064;DHT22;8136;53.172;8.256;2024-03-22T04:12:51;10.80;99.90
16064;DHT22;8136;53.172;8.256;2024-03-22T04:15:18;10.80;99.90
16064;DHT22;8136;53.172;8.256;2024-03-22T04:17:44;10.90;99.90
16064;DHT22;8136;53.172;8.256;2024-03-22T04:20:11;10.90;99.90
16064;DHT22;8136;53.172;8.256;2024-03-22T04:22:37;10.90;99.90
16064;DHT22;8136;53.172;8.256;2024-03-22T04:25:06;10.90;99.90
16064;DHT22;8136;53.172;8.256;2024-03-22T04:27:35;10.90;99.90
16064;DHT22;8136;53.172;8.256;2024-03-22T04:30:03;10.90;99.90
16064;DHT22;8136;53.172;8.256;2024-03-22T04:32:29;11.00;99.90
16064;DHT22;8136;53.172;8.256;2024-03-22T04:34:56;11.00;99.90
16064;DHT22;8136;53.172;8.256;2024-03-22T04:37:22;11.00;99.90
16064;DHT22;8136;53.172;8.256;2024-03-22T04:39:49;10.90;99.90
16064;DHT22;8136;53.172;8.256;2024-03-22T04:42:17;10.90;99.90
16064;DHT22;8136;53.172;8.256;2024-03-22T04:44:45;11.00;99.90
16064;DHT22;8136;53.172;8.256;2024-03-22T04:47:11;11.00;99.90
16064;DHT22;8136;53.172;8.256;2024-03-22T04:49:37;11.00;99.90
16064;DHT22;8136;53.172;8.256;2024-03-22T04:52:04;11.00;99.90
16064;DHT22;8136;53.172;8.256;2024-03-22T04:54:30;11.10;99.90
16064;DHT22;8136;53.172;8.256;2024-03-22T04:56:56;11.10;99.90
16064;DHT22;8136;53.172;8.256;2024-03-22T04:59:25;11.10;99.90
16064;DHT22;8136;53.172;8.256;2024-03-22T05:01:50;11.10;99.90
16064;DHT22;8136;53.172;8.256;2024-03-22T05:04:17;11.10;99.90
16064;DHT22;8136;53.172;8.256;2024-03-22T05:06:43;11.10;99.90
16064;DHT22;8136;53.172;8.256;2024-03-22T05:09:10;11.10;99.90
16064;DHT22;8136;53.172;8.256;2024-03-22T05:11:36;11.10;99.90
16064;DHT22;8136;53.172;8.256;2024-03-22T05:14:03;11.10;99.90
16064;DHT22;8136;53.172;8.256;2024-03-22T05:16:31;11.10;99.90
16064;DHT22;8136;53.172;8.256;2024-03-22T05:18:57;11.10;99.90
16064;DHT22;8136;53.172;8.256;2024-03-22T05:21:23;11.10;99.90
16064;DHT22;8136;53.172;8.256;2024-03-22T05:23:50;11.10;99.90
16064;DHT22;8136;53.172;8.256;2024-03-22T05:26:16;11.10;99.90
16064;DHT22;8136;53.172;8.256;2024-03-22T05:28:44;11.20;99.90
16064;DHT22;8136;53.172;8.256;2024-03-22T05:31:09;11.10;99.90
16064;DHT22;8136;53.172;8.256;2024-03-22T05:33:38;11.20;99.90
16064;DHT22;8136;53.172;8.256;2024-03-22T05:36:04;11.10;99.90
16064;DHT22;8136;53.172;8.256;2024-03-22T05:38:31;11.20;99.90
16064;DHT22;8136;53.172;8.256;2024-03-22T05:40:57;11.20;99.90
16064;DHT22;8136;53.172;8.256;2024-03-22T05:43:24;11.20;99.90
16064;DHT22;8136;53.172;8.256;2024-03-22T05:45:50;11.20;99.90
16064;DHT22;8136;53.172;8.256;2024-03-22T05:48:17;11.20;99.90
16064;DHT22;8136;53.172;8.256;2024-03-22T05:50:44;11.20;99.90
16064;DHT22;8136;53.172;8.256;2024-03-22T05:53:11;11.20;99.90
16064;DHT22;8136;53.172;8.256;2024-03-22T05:55:37;11.20;99.90
16064;DHT22;8136;53.172;8.256;2024-03-22T05:58:04;11.20;99.90
16064;DHT22;8136;53.172;8.256;2024-03-22T06:00:30;11.30;99.90
16064;DHT22;8136;53.172;8.256;2024-03-22T06:02:57;11.30;99.90
16064;DHT22;8136;53.172;8.256;2024-03-22T06:05:23;11.30;99.90
16064;DHT22;8136;53.172;8.256;2024-03-22T06:07:51;11.30;99.90
16064;DHT22;8136;53.172;8.256;2024-03-22T06:10:17;11.30;99.90
16064;DHT22;8136;53.172;8.256;2024-03-22T06:12:44;11.30;99.90
16064;DHT22;8136;53.172;8.256;2024-03-22T06:15:12;11.30;99.90
16064;DHT22;8136;53.172;8.256;2024-03-22T06:17:39;11.30;99.90
16064;DHT22;8136;53.172;8.256;2024-03-22T06:20:06;11.20;99.90
16064;DHT22;8136;53.172;8.256;2024-03-22T06:22:35;11.30;99.90
16064;DHT22;8136;53.172;8.256;2024-03-22T06:25:03;11.20;99.90
16064;DHT22;8136;53.172;8.256;2024-03-22T06:27:30;11.20;99.90
16064;DHT22;8136;53.172;8.256;2024-03-22T06:29:56;11.20;99.90
16064;DHT22;8136;53.172;8.256;2024-03-22T06:32:22;11.20;99.90
16064;DHT22;8136;53.172;8.256;2024-03-22T06:34:48;11.20;99.90
16064;DHT22;8136;53.172;8.256;2024-03-22T06:37:15;11.20;99.90
16064;DHT22;8136;53.172;8.256;2024-03-22T06:39:41;11.20;99.90
16064;DHT22;8136;53.172;8.256;2024-03-22T06:42:09;11.20;99.90
16064;DHT22;8136;53.172;8.256;2024-03-22T06:44:35;11.20;99.90
16064;DHT22;8136;53.172;8.256;2024-03-22T06:47:02;11.20;99.90
16064;DHT22;8136;53.172;8.256;2024-03-22T06:49:28;11.20;99.90
16064;DHT22;8136;53.172;8.256;2024-03-22T06:51:55;11.20;99.90
16064;DHT22;8136;53.172;8.256;2024-03-22T06:54:21;11.20;99.90
16064;DHT22;8136;53.172;8.256;2024-03-22T06:56:48;11.20;99.90
16064;DHT22;8136;53.172;8.256;2024-03-22T06:59:15;11.20;99.90
16064;DHT22;8136;53.172;8.256;2024-03-22T07:01:42;11.20;99.90
16064;DHT22;8136;53.172;8.256;2024-03-22T07:04:09;11.20;99.90
16064;DHT22;8136;53.172;8.256;2024-03-22T07:06:35;11.20;99.90
16064;DHT22;8136;53.172;8.256;2024-03-22T07:10:12;11.10;99.90
16064;DHT22;8136;53.172;8.256;2024-03-22T07:12:39;11.10;99.90
16064;DHT22;8136;53.172;8.256;2024-03-22T07:15:06;11.10;99.90
16064;DHT22;8136;53.172;8.256;2024-03-22T07:17:32;11.00;99.90
16064;DHT22;8136;53.172;8.256;2024-03-22T07:22:26;11.00;99.90
16064;DHT22;8136;53.172;8.256;2024-03-22T07:24:53;11.00;99.90
16064;DHT22;8136;53.172;8.256;2024-03-22T07:27:22;11.00;99.90
16064;DHT22;8136;53.172;8.256;2024-03-22T07:29:48;11.00;99.90
16064;DHT22;8136;53.172;8.256;2024-03-22T07:32:14;11.00;99.90
16064;DHT22;8136;53.172;8.256;2024-03-22T07:34:41;11.00;99.90
16064;DHT22;8136;53.172;8.256;2024-03-22T07:37:07;11.00;99.90
16064;DHT22;8136;53.172;8.256;2024-03-22T07:39:34;11.00;99.90
16064;DHT22;8136;53.172;8.256;2024-03-22T07:42:00;11.00;99.90
16064;DHT22;8136;53.172;8.256;2024-03-22T07:44:29;10.90;99.90
16064;DHT22;8136;53.172;8.256;2024-03-22T07:46:55;11.00;99.90
16064;DHT22;8136;53.172;8.256;2024-03-22T07:49:22;11.00;99.90
16064;DHT22;8136;53.172;8.256;2024-03-22T07:51:48;11.00;99.90
16064;DHT22;8136;53.172;8.256;2024-03-22T07:54:15;11.00;99.90
16064;DHT22;8136;53.172;8.256;2024-03-22T07:56:41;10.90;99.90
16064;DHT22;8136;53.172;8.256;2024-03-22T07:59:08;10.90;99.90
16064;DHT22;8136;53.172;8.256;2024-03-22T08:01:35;11.00;99.90
16064;DHT22;8136;53.172;8.256;2024-03-22T08:04:02;11.00;99.90
16064;DHT22;8136;53.172;8.256;2024-03-22T08:06:28;11.00;99.90
16064;DHT22;8136;53.172;8.256;2024-03-22T08:08:55;10.90;99.90
16064;DHT22;8136;53.172;8.256;2024-03-22T08:11:21;11.00;99.90
16064;DHT22;8136;53.172;8.256;2024-03-22T08:13:48;11.00;99.90
16064;DHT22;8136;53.172;8.256;2024-03-22T08:16:14;11.00;99.90
16064;DHT22;8136;53.172;8.256;2024-03-22T08:18:42;11.00;99.90
16064;DHT22;8136;53.172;8.256;2024-03-22T08:21:08;11.00;99.90
16064;DHT22;8136;53.172;8.256;2024-03-22T08:23:35;11.00;99.90
16064;DHT22;8136;53.172;8.256;2024-03-22T08:26:00;11.00;99.90
16064;DHT22;8136;53.172;8.256;2024-03-22T08:28:27;11.00;99.90
16064;DHT22;8136;53.172;8.256;2024-03-22T08:30:53;11.00;99.90
16064;DHT22;8136;53.172;8.256;2024-03-22T08:33:20;11.00;99.90
16064;DHT22;8136;53.172;8.256;2024-03-22T08:35:47;11.00;99.90
16064;DHT22;8136;53.172;8.256;2024-03-22T08:38:15;11.00;99.90
16064;DHT22;8136;53.172;8.256;2024-03-22T08:40:40;11.00;99.90
16064;DHT22;8136;53.172;8.256;2024-03-22T08:43:07;11.00;99.90
16064;DHT22;8136;53.172;8.256;2024-03-22T08:45:33;11.00;99.90
16064;DHT22;8136;53.172;8.256;2024-03-22T08:48:00;11.00;99.90
16064;DHT22;8136;53.172;8.256;2024-03-22T08:50:26;11.10;99.90
16064;DHT22;8136;53.172;8.256;2024-03-22T08:52:54;11.10;99.90
16064;DHT22;8136;53.172;8.256;2024-03-22T08:55:20;11.10;99.90
16064;DHT22;8136;53.172;8.256;2024-03-22T08:57:47;11.10;99.90
16064;DHT22;8136;53.172;8.256;2024-03-22T09:00:13;11.10;99.90
16064;DHT22;8136;53.172;8.256;2024-03-22T09:02:40;11.10;99.90
16064;DHT22;8136;53.172;8.256;2024-03-22T09:05:06;11.10;99.90
16064;DHT22;8136;53.172;8.256;2024-03-22T09:07:34;11.10;99.90
16064;DHT22;8136;53.172;8.256;2024-03-22T09:10:01;11.10;99.90
16064;DHT22;8136;53.172;8.256;2024-03-22T09:12:28;11.00;99.90
16064;DHT22;8136;53.172;8.256;2024-03-22T09:14:54;10.90;99.90
16064;DHT22;8136;53.172;8.256;2024-03-22T09:17:21;10.80;99.90
16064;DHT22;8136;53.172;8.256;2024-03-22T09:19:47;10.80;99.90
16064;DHT22;8136;53.172;8.256;2024-03-22T09:22:14;10.70;99.90
16064;DHT22;8136;53.172;8.256;2024-03-22T09:24:40;10.70;99.90
16064;DHT22;8136;53.172;8.256;2024-03-22T09:27:08;10.70;99.90
16064;DHT22;8136;53.172;8.256;2024-03-22T09:29:35;10.70;99.90
16064;DHT22;8136;53.172;8.256;2024-03-22T09:32:03;10.70;99.90
16064;DHT22;8136;53.172;8.256;2024-03-22T09:34:29;10.80;99.90
16064;DHT22;8136;53.172;8.256;2024-03-22T09:36:57;10.70;99.90
16064;DHT22;8136;53.172;8.256;2024-03-22T09:39:23;10.70;99.90
16064;DHT22;8136;53.172;8.256;2024-03-22T09:41:51;10.70;99.90
16064;DHT22;8136;53.172;8.256;2024-03-22T09:44:19;10.70;99.90
16064;DHT22;8136;53.172;8.256;2024-03-22T09:46:47;10.70;99.90
16064;DHT22;8136;53.172;8.256;2024-03-22T09:49:13;10.70;99.90
16064;DHT22;8136;53.172;8.256;2024-03-22T09:51:41;10.70;99.90
16064;DHT22;8136;53.172;8.256;2024-03-22T09:54:09;10.70;99.90
16064;DHT22;8136;53.172;8.256;2024-03-22T09:56:38;10.70;99.90
16064;DHT22;8136;53.172;8.256;2024-03-22T09:59:05;10.50;99.90
16064;DHT22;8136;53.172;8.256;2024-03-22T10:01:36;10.50;99.90
16064;DHT22;8136;53.172;8.256;2024-03-22T10:04:04;10.50;99.90
16064;DHT22;8136;53.172;8.256;2024-03-22T10:06:31;10.60;99.90
16064;DHT22;8136;53.172;8.256;2024-03-22T10:08:58;10.60;99.90
16064;DHT22;8136;53.172;8.256;2024-03-22T10:11:26;10.50;99.90
16064;DHT22;8136;53.172;8.256;2024-03-22T10:13:52;10.50;99.90
16064;DHT22;8136;53.172;8.256;2024-03-22T10:16:20;10.60;99.90
16064;DHT22;8136;53.172;8.256;2024-03-22T10:18:48;10.60;99.90
16064;DHT22;8136;53.172;8.256;2024-03-22T10:21:18;10.60;99.90
16064;DHT22;8136;53.172;8.256;2024-03-22T10:23:44;10.70;99.90
16064;DHT22;8136;53.172;8.256;2024-03-22T10:26:12;10.70;99.90
16064;DHT22;8136;53.172;8.256;2024-03-22T10:28:44;10.70;99.90
16064;DHT22;8136;53.172;8.256;2024-03-22T10:31:11;10.70;99.90
16064;DHT22;8136;53.172;8.256;2024-03-22T10:33:38;10.70;99.90
16064;DHT22;8136;53.172;8.256;2024-03-22T10:36:09;10.70;99.90
16064;DHT22;8136;53.172;8.256;2024-03-22T10:38:38;10.70;99.90
16064;DHT22;8136;53.172;8.256;2024-03-22T10:41:04;10.60;99.90
16064;DHT22;8136;53.172;8.256;2024-03-22T10:43:30;10.60;99.90
16064;DHT22;8136;53.172;8.256;2024-03-22T10:46:02;10.60;99.90
16064;DHT22;8136;53.172;8.256;2024-03-22T10:48:31;10.60;99.90
16064;DHT22;8136;53.172;8.256;2024-03-22T10:51:01;10.70;99.90
16064;DHT22;8136;53.172;8.256;2024-03-22T10:53:32;10.60;99.90
16064;DHT22;8136;53.172;8.256;2024-03-22T10:56:01;10.60;99.90
16064;DHT22;8136;53.172;8.256;2024-03-22T10:58:28;10.60;99.90
16064;DHT22;8136;53.172;8.256;2024-03-22T11:00:56;10.60;99.90
16064;DHT22;8136;53.172;8.256;2024-03-22T11:03:24;10.60;99.90
16064;DHT22;8136;53.172;8.256;2024-03-22T11:06:12;10.60;99.90
16064;DHT22;8136;53.172;8.256;2024-03-22T11:08:41;10.60;99.90
16064;DHT22;8136;53.172;8.256;2024-03-22T11:11:10;10.60;99.90
16064;DHT22;8136;53.172;8.256;2024-03-22T11:13:36;10.60;99.90
16064;DHT22;8136;53.172;8.256;2024-03-22T11:16:03;10.70;99.90
16064;DHT22;8136;53.172;8.256;2024-03-22T11:18:29;10.70;99.90
16064;DHT22;8136;53.172;8.256;2024-03-22T11:20:57;10.70;99.90
16064;DHT22;8136;53.172;8.256;2024-03-22T11:23:23;10.70;99.90
16064;DHT22;8136;53.172;8.256;2024-03-22T11:25:51;10.60;99.90
16064;DHT22;8136;53.172;8.256;2024-03-22T11:28:17;10.70;99.90
16064;DHT22;8136;53.172;8.256;2024-03-22T11:30:45;10.70;99.90
16064;DHT22;8136;53.172;8.256;2024-03-22T11:33:11;10.70;99.90
16064;DHT22;8136;53.172;8.256;2024-03-22T11:35:38;10.70;99.90
16064;DHT22;8136;53.172;8.256;2024-03-22T11:38:04;10.70;99.90
16064;DHT22;8136;53.172;8.256;2024-03-22T11:40:31;10.70;99.90
16064;DHT22;8136;53.172;8.256;2024-03-22T11:43:01;10.70;99.90
16064;DHT22;8136;53.172;8.256;2024-03-22T11:45:29;10.70;99.90
16064;DHT22;8136;53.172;8.256;2024-03-22T11:47:57;10.70;99.90
16064;DHT22;8136;53.172;8.256;2024-03-22T11:50:24;10.70;99.90
16064;DHT22;8136;53.172;8.256;2024-03-22T11:52:50;10.70;99.90
16064;DHT22;8136;53.172;8.256;2024-03-22T11:55:17;10.70;99.90
16064;DHT22;8136;53.172;8.256;2024-03-22T11:57:48;10.80;99.90
16064;DHT22;8136;53.172;8.256;2024-03-22T12:00:18;10.90;99.90
16064;DHT22;8136;53.172;8.256;2024-03-22T12:02:44;10.80;99.90
16064;DHT22;8136;53.172;8.256;2024-03-22T12:05:11;10.90;99.90
16064;DHT22;8136;53.172;8.256;2024-03-22T12:07:37;10.90;99.90
16064;DHT22;8136;53.172;8.256;2024-03-22T12:10:04;10.90;99.90
16064;DHT22;8136;53.172;8.256;2024-03-22T12:12:30;10.90;99.90
16064;DHT22;8136;53.172;8.256;2024-03-22T12:14:57;10.90;99.90
16064;DHT22;8136;53.172;8.256;2024-03-22T12:17:24;11.00;99.90
16064;DHT22;8136;53.172;8.256;2024-03-22T12:19:51;11.10;99.90
16064;DHT22;8136;53.172;8.256;2024-03-22T12:22:18;11.10;99.90
16064;DHT22;8136;53.172;8.256;2024-03-22T12:24:45;11.00;99.90
16064;DHT22;8136;53.172;8.256;2024-03-22T12:27:11;11.00;99.90
16064;DHT22;8136;53.172;8.256;2024-03-22T12:29:38;11.00;99.90
16064;DHT22;8136;53.172;8.256;2024-03-22T12:32:04;11.10;99.90
16064;DHT22;8136;53.172;8.256;2024-03-22T12:34:33;11.10;99.90
16064;DHT22;8136;53.172;8.256;2024-03-22T12:36:59;11.00;99.90
16064;DHT22;8136;53.172;8.256;2024-03-22T12:39:26;11.10;99.90
16064;DHT22;8136;53.172;8.256;2024-03-22T12:41:52;11.10;99.90
16064;DHT22;8136;53.172;8.256;2024-03-22T12:44:20;11.10;99.90
16064;DHT22;8136;53.172;8.256;2024-03-22T12:46:46;11.10;99.90
16064;DHT22;8136;53.172;8.256;2024-03-22T12:49:13;11.10;99.90
16064;DHT22;8136;53.172;8.256;2024-03-22T12:51:40;11.10;99.90
16064;DHT22;8136;53.172;8.256;2024-03-22T12:54:07;11.20;99.90
16064;DHT22;8136;53.172;8.256;2024-03-22T12:56:34;11.20;99.90
16064;DHT22;8136;53.172;8.256;2024-03-22T12:59:02;11.20;99.90
16064;DHT22;8136;53.172;8.256;2024-03-22T13:01:28;11.20;99.90
16064;DHT22;8136;53.172;8.256;2024-03-22T13:03:55;11.20;99.90
16064;DHT22;8136;53.172;8.256;2024-03-22T13:06:21;11.20;99.90
16064;DHT22;8136;53.172;8.256;2024-03-22T13:08:49;11.30;99.90
16064;DHT22;8136;53.172;8.256;2024-03-22T13:11:15;11.20;99.90
16064;DHT22;8136;53.172;8.256;2024-03-22T13:13:43;11.20;99.90
16064;DHT22;8136;53.172;8.256;2024-03-22T13:16:09;11.20;99.90
16064;DHT22;8136;53.172;8.256;2024-03-22T13:18:40;11.20;99.90
16064;DHT22;8136;53.172;8.256;2024-03-22T13:21:06;11.20;99.90
16064;DHT22;8136;53.172;8.256;2024-03-22T13:23:32;11.30;99.90
16064;DHT22;8136;53.172;8.256;2024-03-22T13:26:04;11.30;99.90
16064;DHT22;8136;53.172;8.256;2024-03-22T13:28:32;11.30;99.90
16064;DHT22;8136;53.172;8.256;2024-03-22T13:31:01;11.30;99.90
16064;DHT22;8136;53.172;8.256;2024-03-22T13:33:29;11.30;99.90
16064;DHT22;8136;53.172;8.256;2024-03-22T13:35:55;11.30;99.90
16064;DHT22;8136;53.172;8.256;2024-03-22T13:38:22;11.40;99.90
16064;DHT22;8136;53.172;8.256;2024-03-22T13:41:05;11.30;99.90
16064;DHT22;8136;53.172;8.256;2024-03-22T13:43:32;11.30;99.90
16064;DHT22;8136;53.172;8.256;2024-03-22T13:46:00;11.30;99.90
16064;DHT22;8136;53.172;8.256;2024-03-22T13:48:27;11.30;99.90
16064;DHT22;8136;53.172;8.256;2024-03-22T13:50:55;11.20;99.90
16064;DHT22;8136;53.172;8.256;2024-03-22T13:53:22;11.20;99.90
16064;DHT22;8136;53.172;8.256;2024-03-22T13:55:48;11.10;99.90
16064;DHT22;8136;53.172;8.256;2024-03-22T13:58:17;11.10;99.90
16064;DHT22;8136;53.172;8.256;2024-03-22T14:00:43;11.10;99.90
16064;DHT22;8136;53.172;8.256;2024-03-22T14:03:11;11.00;99.90
16064;DHT22;8136;53.172;8.256;2024-03-22T14:05:37;11.00;99.90
16064;DHT22;8136;53.172;8.256;2024-03-22T14:08:05;11.10;99.90
16064;DHT22;8136;53.172;8.256;2024-03-22T14:10:31;11.00;99.90
16064;DHT22;8136;53.172;8.256;2024-03-22T14:12:58;11.00;99.90
16064;DHT22;8136;53.172;8.256;2024-03-22T14:15:25;11.00;99.90
16064;DHT22;8136;53.172;8.256;2024-03-22T14:17:54;10.90;99.90
16064;DHT22;8136;53.172;8.256;2024-03-22T14:20:21;10.80;99.90
16064;DHT22;8136;53.172;8.256;2024-03-22T14:22:48;10.80;99.90
16064;DHT22;8136;53.172;8.256;2024-03-22T14:25:13;10.70;99.90
16064;DHT22;8136;53.172;8.256;2024-03-22T14:27:40;10.70;99.90
16064;DHT22;8136;53.172;8.256;2024-03-22T14:30:10;10.60;99.90
16064;DHT22;8136;53.172;8.256;2024-03-22T14:32:40;10.50;99.90
16064;DHT22;8136;53.172;8.256;2024-03-22T14:35:06;10.40;99.90
16064;DHT22;8136;53.172;8.256;2024-03-22T14:37:34;10.40;99.90
16064;DHT22;8136;53.172;8.256;2024-03-22T14:40:00;10.40;99.90
16064;DHT22;8136;53.172;8.256;2024-03-22T14:42:30;10.40;99.90
16064;DHT22;8136;53.172;8.256;2024-03-22T14:44:56;10.30;99.90
16064;DHT22;8136;53.172;8.256;2024-03-22T14:47:22;10.30;99.90
16064;DHT22;8136;53.172;8.256;2024-03-22T14:49:50;10.30;99.90
16064;DHT22;8136;53.172;8.256;2024-03-22T14:52:17;10.20;99.90
16064;DHT22;8136;53.172;8.256;2024-03-22T14:54:43;10.30;99.90
16064;DHT22;8136;53.172;8.256;2024-03-22T14:57:10;10.30;99.90
16064;DHT22;8136;53.172;8.256;2024-03-22T14:59:36;10.40;99.90
16064;DHT22;8136;53.172;8.256;2024-03-22T15:02:03;10.40;99.90
16064;DHT22;8136;53.172;8.256;2024-03-22T15:04:29;10.40;99.90
16064;DHT22;8136;53.172;8.256;2024-03-22T15:06:57;10.50;99.90
16064;DHT22;8136;53.172;8.256;2024-03-22T15:09:23;10.50;99.90
16064;DHT22;8136;53.172;8.256;2024-03-22T15:11:50;10.40;99.90
16064;DHT22;8136;53.172;8.256;2024-03-22T15:14:16;10.40;99.90
16064;DHT22;8136;53.172;8.256;2024-03-22T15:16:43;10.40;99.90
16064;DHT22;8136;53.172;8.256;2024-03-22T15:19:09;10.50;99.90
16064;DHT22;8136;53.172;8.256;2024-03-22T15:21:36;10.40;99.90
16064;DHT22;8136;53.172;8.256;2024-03-22T15:24:04;10.50;99.90
16064;DHT22;8136;53.172;8.256;2024-03-22T15:26:32;10.50;99.90
16064;DHT22;8136;53.172;8.256;2024-03-22T15:28:58;10.50;99.90
16064;DHT22;8136;53.172;8.256;2024-03-22T15:31:25;10.50;99.90
16064;DHT22;8136;53.172;8.256;2024-03-22T15:33:50;10.50;99.90
16064;DHT22;8136;53.172;8.256;2024-03-22T15:36:17;10.50;99.90
16064;DHT22;8136;53.172;8.256;2024-03-22T15:38:43;10.60;99.90
16064;DHT22;8136;53.172;8.256;2024-03-22T15:41:12;10.60;99.90
16064;DHT22;8136;53.172;8.256;2024-03-22T15:43:40;10.60;99.90
16064;DHT22;8136;53.172;8.256;2024-03-22T15:46:06;10.60;99.90
16064;DHT22;8136;53.172;8.256;2024-03-22T15:48:32;10.50;99.90
16064;DHT22;8136;53.172;8.256;2024-03-22T15:50:59;10.50;99.90